Time;durP1;ratioP1;P1;durP2;ratioP2;P2;SDS_P1;SDS_P2;PMS_P1;PMS_P2;Temp;Humidity;BMP_temperature;BMP_pressure;BME280_temperature;BME280_humidity;BME280_pressure;Samples;Min_cycle;Max_cycle;Signal;HPM_P1;HPM_P2
2022/01/24 00:00:00;;;;;;;14.27;7.03;;;;;;;;;;7388521;19;20036;-76
2022/01/24 00:02:28;;;;;;;12.50;7.03;;;;;;;;;;7389376;19;20010;-77
2022/01/24 00:04:54;;;;;;;12.35;6.43;;;;;;;;;;7386772;19;20359;-77
2022/01/24 00:07:22;;;;;;;11.55;7.22;;;;;;;;;;7389132;19;20005;-77
2022/01/24 00:09:48;;;;;;;8.77;5.07;;;;;;;;;;7388386;19;20572;-77
2022/01/24 00:12:19;;;;;;;12.60;6.53;;;;;;;;;;7386835;19;20037;-77
2022/01/24 00:17:35;;;;;;;10.00;5.97;;;;;;;;;;7388814;19;20504;-76
2022/01/24 00:28:04;;;;;;;10.13;5.78;;;;;;;;;;7388671;19;20034;-77
2022/01/24 00:30:29;;;;;;;12.13;6.35;;;;;;;;;;7388584;19;21091;-77
2022/01/24 00:32:54;;;;;;;11.20;6.35;;;;;;;;;;7387332;19;20002;-77
2022/01/24 00:35:20;;;;;;;9.65;6.18;;;;;;;;;;7389469;19;20017;-77
2022/01/24 00:37:45;;;;;;;9.82;5.72;;;;;;;;;;7387698;19;20015;-77
2022/01/24 00:40:11;;;;;;;9.15;5.80;;;;;;;;;;7386928;19;20021;-77
2022/01/24 00:45:15;;;;;;;11.52;6.20;;;;;;;;;;7385816;19;20429;-77
2022/01/24 00:55:20;;;;;;;7.63;5.47;;;;;;;;;;7387816;19;20014;-76
2022/01/24 00:57:46;;;;;;;12.23;5.63;;;;;;;;;;7385564;19;20010;-77
2022/01/24 01:00:12;;;;;;;10.48;5.35;;;;;;;;;;7389471;19;20006;-76
2022/01/24 01:02:38;;;;;;;10.32;5.95;;;;;;;;;;7389492;19;20045;-76
2022/01/24 01:05:19;;;;;;;8.93;5.65;;;;;;;;;;7386769;19;20081;-77
2022/01/24 01:18:07;;;;;;;6.95;4.32;;;;;;;;;;7386603;19;20043;-77
2022/01/24 01:18:47;;;;;;;8.02;5.03;;;;;;;;;;7385432;19;20117;-77
2022/01/24 01:21:16;;;;;;;9.20;4.93;;;;;;;;;;7386933;19;20098;-77
2022/01/24 01:23:52;;;;;;;6.50;4.55;;;;;;;;;;7385519;19;20070;-77
2022/01/24 01:26:34;;;;;;;8.13;4.63;;;;;;;;;;7387420;19;20011;-77
2022/01/24 01:29:15;;;;;;;7.18;3.78;;;;;;;;;;7386939;19;20519;-77
2022/01/24 01:34:23;;;;;;;6.82;4.25;;;;;;;;;;7387114;19;20021;-77
2022/01/24 01:53:34;;;;;;;8.02;4.32;;;;;;;;;;7387942;19;20010;-77
2022/01/24 01:56:00;;;;;;;4.47;3.08;;;;;;;;;;7389766;19;20006;-77
2022/01/24 01:58:26;;;;;;;6.72;4.00;;;;;;;;;;7390136;19;20006;-78
2022/01/24 02:00:54;;;;;;;6.60;4.13;;;;;;;;;;7391958;19;20046;-78
2022/01/24 02:03:20;;;;;;;6.30;3.88;;;;;;;;;;7394176;19;20015;-77
2022/01/24 02:05:46;;;;;;;5.90;3.28;;;;;;;;;;7394112;19;20408;-78
2022/01/24 02:08:11;;;;;;;5.80;3.58;;;;;;;;;;7392981;19;20023;-78
2022/01/24 02:10:39;;;;;;;5.20;3.50;;;;;;;;;;7391110;19;19998;-78
2022/01/24 02:13:05;;;;;;;5.65;3.60;;;;;;;;;;7392949;19;20010;-78
2022/01/24 02:15:44;;;;;;;4.43;2.97;;;;;;;;;;7392958;19;20014;-78
2022/01/24 02:18:25;;;;;;;5.13;3.35;;;;;;;;;;7391373;19;20030;-77
2022/01/24 02:25:55;;;;;;;5.93;3.78;;;;;;;;;;7389690;19;20331;-77
2022/01/24 02:28:22;;;;;;;4.15;2.85;;;;;;;;;;7390668;19;20102;-77
2022/01/24 02:33:14;;;;;;;5.80;3.58;;;;;;;;;;7393247;19;20018;-77
2022/01/24 02:35:40;;;;;;;4.78;3.70;;;;;;;;;;7391510;19;20103;-76
2022/01/24 02:38:20;;;;;;;4.30;3.03;;;;;;;;;;7390178;19;20032;-76
2022/01/24 02:46:03;;;;;;;5.38;3.35;;;;;;;;;;7386532;19;20006;-76
2022/01/24 02:49:10;;;;;;;4.63;2.90;;;;;;;;;;7394421;19;20016;-76
2022/01/24 02:51:47;;;;;;;5.15;2.95;;;;;;;;;;7393179;19;20018;-76
2022/01/24 02:54:21;;;;;;;3.65;2.72;;;;;;;;;;7394094;19;20481;-76
2022/01/24 02:56:46;;;;;;;5.15;3.10;;;;;;;;;;7392997;19;20024;-76
2022/01/24 02:59:12;;;;;;;4.25;2.97;;;;;;;;;;7390596;19;20010;-76
2022/01/24 03:01:41;;;;;;;5.78;3.15;;;;;;;;;;7388336;19;20088;-76
2022/01/24 03:04:07;;;;;;;3.67;2.63;;;;;;;;;;7393290;19;20013;-76
2022/01/24 03:06:32;;;;;;;5.68;2.95;;;;;;;;;;7392282;19;20066;-76
2022/01/24 03:08:57;;;;;;;5.60;2.78;;;;;;;;;;7387038;19;19998;-77
2022/01/24 03:11:27;;;;;;;5.30;3.17;;;;;;;;;;7390825;19;20490;-77
2022/01/24 03:13:52;;;;;;;4.82;2.63;;;;;;;;;;7392100;19;20010;-77
2022/01/24 03:16:18;;;;;;;3.85;2.70;;;;;;;;;;7393637;19;20013;-77
2022/01/24 03:18:43;;;;;;;5.88;3.25;;;;;;;;;;7392353;19;20010;-76
2022/01/24 03:21:08;;;;;;;4.40;2.97;;;;;;;;;;7387510;19;20014;-76
2022/01/24 03:23:33;;;;;;;4.00;2.63;;;;;;;;;;7392716;19;20011;-77
2022/01/24 03:25:59;;;;;;;5.43;2.95;;;;;;;;;;7391557;19;20349;-77
2022/01/24 03:28:24;;;;;;;3.55;2.47;;;;;;;;;;7393244;19;20070;-77
2022/01/24 03:30:50;;;;;;;4.60;2.70;;;;;;;;;;7392094;19;20750;-77
2022/01/24 03:33:15;;;;;;;4.03;2.80;;;;;;;;;;7392976;19;20018;-77
2022/01/24 03:35:42;;;;;;;4.28;2.72;;;;;;;;;;7392730;19;20048;-77
2022/01/24 03:38:08;;;;;;;3.92;2.78;;;;;;;;;;7391989;19;20070;-77
2022/01/24 03:40:33;;;;;;;5.55;2.53;;;;;;;;;;7389683;19;20019;-77
2022/01/24 03:42:58;;;;;;;3.45;2.25;;;;;;;;;;7392670;19;20365;-76
2022/01/24 03:45:37;;;;;;;3.90;2.47;;;;;;;;;;7393528;19;20003;-77
2022/01/24 03:48:08;;;;;;;4.30;2.45;;;;;;;;;;7390915;19;20480;-77
2022/01/24 03:50:33;;;;;;;3.13;2.10;;;;;;;;;;7392568;19;20126;-76
2022/01/24 03:52:59;;;;;;;3.75;2.05;;;;;;;;;;7393325;19;20157;-76
2022/01/24 03:55:24;;;;;;;3.38;2.22;;;;;;;;;;7391580;19;20041;-75
2022/01/24 03:57:49;;;;;;;4.35;3.00;;;;;;;;;;7389949;19;20371;-76
2022/01/24 04:00:15;;;;;;;4.60;2.22;;;;;;;;;;7388551;19;20078;-76
2022/01/24 04:02:41;;;;;;;2.65;1.80;;;;;;;;;;7389339;19;20011;-76
2022/01/24 04:05:06;;;;;;;4.20;2.38;;;;;;;;;;7391738;19;20326;-76
2022/01/24 04:07:32;;;;;;;2.65;1.88;;;;;;;;;;7389469;19;20512;-76
2022/01/24 04:10:04;;;;;;;4.38;2.10;;;;;;;;;;7390329;19;20473;-76
2022/01/24 04:12:29;;;;;;;2.97;2.08;;;;;;;;;;7391895;19;20017;-76
2022/01/24 04:15:08;;;;;;;3.63;2.20;;;;;;;;;;7391603;19;20006;-76
2022/01/24 04:17:45;;;;;;;2.05;1.70;;;;;;;;;;7391712;19;20014;-76
2022/01/24 04:22:58;;;;;;;2.57;1.77;;;;;;;;;;7394638;19;20121;-76
2022/01/24 04:25:24;;;;;;;2.25;1.58;;;;;;;;;;7389501;19;20429;-76
2022/01/24 04:27:52;;;;;;;2.85;1.95;;;;;;;;;;7390153;19;20010;-77
2022/01/24 04:30:17;;;;;;;4.15;1.92;;;;;;;;;;7385591;19;20005;-77
2022/01/24 04:32:42;;;;;;;1.95;1.63;;;;;;;;;;7389260;19;20006;-77
2022/01/24 04:35:08;;;;;;;2.88;1.70;;;;;;;;;;7386301;19;20010;-78
2022/01/24 04:37:33;;;;;;;3.30;1.65;;;;;;;;;;7387919;19;20006;-78
2022/01/24 04:39:59;;;;;;;2.08;1.65;;;;;;;;;;7386498;19;20115;-78
2022/01/24 04:42:35;;;;;;;2.53;1.88;;;;;;;;;;7385714;19;20062;-78
2022/01/24 04:50:45;;;;;;;2.70;1.65;;;;;;;;;;7382384;19;20035;-75
2022/01/24 04:53:51;;;;;;;2.60;1.40;;;;;;;;;;7379314;19;20045;-75
2022/01/24 04:55:56;;;;;;;;;;;;;;;;;;7379240;19;20006;-73
2022/01/24 04:58:21;;;;;;;2.80;1.45;;;;;;;;;;7375508;19;19923;-75
2022/01/24 05:00:47;;;;;;;1.88;1.23;;;;;;;;;;7377868;19;20110;-75
2022/01/24 05:03:12;;;;;;;2.17;1.42;;;;;;;;;;7379470;19;20014;-75
2022/01/24 05:05:37;;;;;;;2.83;1.42;;;;;;;;;;7375151;19;20080;-75
2022/01/24 05:08:05;;;;;;;1.30;1.15;;;;;;;;;;7377925;19;20010;-75
2022/01/24 05:10:37;;;;;;;1.98;1.38;;;;;;;;;;7377015;19;20035;-75
2022/01/24 05:24:06;;;;;;;1.45;1.10;;;;;;;;;;7378594;19;20490;-75
2022/01/24 05:26:32;;;;;;;1.75;1.17;;;;;;;;;;7378914;19;20400;-75
2022/01/24 05:28:57;;;;;;;2.33;1.35;;;;;;;;;;7377119;19;20009;-75
2022/01/24 05:31:22;;;;;;;3.83;1.67;;;;;;;;;;7385872;19;20006;-74
2022/01/24 05:33:49;;;;;;;3.58;1.63;;;;;;;;;;7386743;19;20144;-75
2022/01/24 05:36:14;;;;;;;2.33;1.63;;;;;;;;;;7383078;19;20034;-75
2022/01/24 05:38:39;;;;;;;3.30;1.88;;;;;;;;;;7383081;19;19998;-75
2022/01/24 05:41:05;;;;;;;2.85;1.98;;;;;;;;;;7382675;19;20002;-74
2022/01/24 05:43:30;;;;;;;4.22;1.92;;;;;;;;;;7386620;19;20006;-75
2022/01/24 05:45:55;;;;;;;2.25;1.65;;;;;;;;;;7386653;19;20018;-75
2022/01/24 05:48:21;;;;;;;2.53;1.58;;;;;;;;;;7387106;19;20309;-75
2022/01/24 05:50:46;;;;;;;3.30;1.98;;;;;;;;;;7383707;19;20435;-75
2022/01/24 05:53:11;;;;;;;5.82;2.10;;;;;;;;;;7385933;19;20010;-75
2022/01/24 05:55:37;;;;;;;6.00;2.22;;;;;;;;;;7387961;19;20014;-75
2022/01/24 05:58:02;;;;;;;4.60;2.58;;;;;;;;;;7386187;19;20007;-77
2022/01/24 06:00:28;;;;;;;4.93;2.80;;;;;;;;;;7385827;19;20021;-76
2022/01/24 06:02:53;;;;;;;8.50;2.67;;;;;;;;;;7388257;19;20010;-76
2022/01/24 06:05:18;;;;;;;5.75;2.72;;;;;;;;;;7386694;19;20018;-76
2022/01/24 06:07:44;;;;;;;3.10;2.15;;;;;;;;;;7385537;19;20032;-75
2022/01/24 06:10:10;;;;;;;3.88;2.33;;;;;;;;;;7377702;19;20010;-75
2022/01/24 06:12:35;;;;;;;3.80;2.25;;;;;;;;;;7385589;19;20015;-77
2022/01/24 06:15:04;;;;;;;4.28;2.45;;;;;;;;;;7385101;19;20006;-75
2022/01/24 06:17:29;;;;;;;5.10;2.38;;;;;;;;;;7382822;19;20007;-75
2022/01/24 06:19:54;;;;;;;6.55;2.63;;;;;;;;;;7382403;19;20007;-74
2022/01/24 06:22:20;;;;;;;5.50;2.67;;;;;;;;;;7385936;19;20002;-76
2022/01/24 06:24:46;;;;;;;6.22;2.72;;;;;;;;;;7383719;19;20006;-75
2022/01/24 06:27:11;;;;;;;3.10;2.15;;;;;;;;;;7385887;19;20070;-76
2022/01/24 06:29:36;;;;;;;4.90;2.80;;;;;;;;;;7379570;19;20114;-76
2022/01/24 06:32:02;;;;;;;3.92;2.28;;;;;;;;;;7384996;19;19998;-77
2022/01/24 06:34:27;;;;;;;4.38;2.50;;;;;;;;;;7385011;19;20313;-75
2022/01/24 06:36:52;;;;;;;4.75;2.78;;;;;;;;;;7385813;19;19995;-75
2022/01/24 06:39:18;;;;;;;3.85;2.50;;;;;;;;;;7380987;19;20011;-76
2022/01/24 06:41:51;;;;;;;3.70;2.22;;;;;;;;;;7384131;19;20006;-75
2022/01/24 06:44:16;;;;;;;3.63;2.30;;;;;;;;;;7381998;19;20039;-75
2022/01/24 06:46:42;;;;;;;5.05;2.67;;;;;;;;;;7381609;19;20007;-75
2022/01/24 06:49:09;;;;;;;3.80;2.42;;;;;;;;;;7381942;19;20017;-75
2022/01/24 06:51:34;;;;;;;3.20;2.03;;;;;;;;;;7382788;19;20468;-75
2022/01/24 06:53:59;;;;;;;3.75;1.95;;;;;;;;;;7383095;19;20031;-75
2022/01/24 06:56:25;;;;;;;3.63;2.13;;;;;;;;;;7384874;19;20389;-75
2022/01/24 06:58:50;;;;;;;3.78;1.92;;;;;;;;;;7381224;19;19998;-75
2022/01/24 07:01:15;;;;;;;3.83;2.10;;;;;;;;;;7382674;19;20010;-75
2022/01/24 07:03:41;;;;;;;3.22;1.92;;;;;;;;;;7381142;19;20044;-74
2022/01/24 07:06:06;;;;;;;3.85;2.13;;;;;;;;;;7381116;19;20325;-74
2022/01/24 07:08:31;;;;;;;3.17;2.00;;;;;;;;;;7374219;19;20015;-75
2022/01/24 07:10:57;;;;;;;3.65;2.17;;;;;;;;;;7375745;19;20353;-74
2022/01/24 07:13:22;;;;;;;4.70;2.17;;;;;;;;;;7378116;19;20475;-76
2022/01/24 07:15:57;;;;;;;5.10;2.03;;;;;;;;;;7382633;19;20034;-76
2022/01/24 07:20:58;;;;;;;3.20;1.92;;;;;;;;;;7379580;19;20015;-75
2022/01/24 07:23:23;;;;;;;4.25;2.22;;;;;;;;;;7379157;19;20019;-76
2022/01/24 07:25:49;;;;;;;4.18;2.10;;;;;;;;;;7381295;19;20491;-74
2022/01/24 07:28:15;;;;;;;4.00;2.25;;;;;;;;;;7382191;19;20095;-75
2022/01/24 07:30:41;;;;;;;4.05;2.40;;;;;;;;;;7376093;19;20007;-75
2022/01/24 07:33:06;;;;;;;3.47;2.15;;;;;;;;;;7382076;19;20014;-75
2022/01/24 07:35:32;;;;;;;5.00;2.40;;;;;;;;;;7381005;19;20006;-76
2022/01/24 07:37:58;;;;;;;5.53;2.80;;;;;;;;;;7380009;19;20006;-76
2022/01/24 07:40:23;;;;;;;4.82;2.53;;;;;;;;;;7378268;19;20007;-76
2022/01/24 07:45:32;;;;;;;4.38;2.63;;;;;;;;;;7384871;19;20332;-76
2022/01/24 07:47:58;;;;;;;5.30;3.10;;;;;;;;;;7383053;19;20041;-75
2022/01/24 07:50:25;;;;;;;3.72;2.38;;;;;;;;;;7380767;19;20065;-73
2022/01/24 07:52:51;;;;;;;4.65;2.60;;;;;;;;;;7375386;19;20010;-75
2022/01/24 07:55:17;;;;;;;4.80;2.55;;;;;;;;;;7375134;19;20006;-74
2022/01/24 07:57:42;;;;;;;9.05;2.88;;;;;;;;;;7382255;19;20007;-73
2022/01/24 08:00:10;;;;;;;4.03;2.30;;;;;;;;;;7377379;19;19995;-73
2022/01/24 08:02:36;;;;;;;4.65;2.47;;;;;;;;;;7382776;19;20028;-72
2022/01/24 08:05:02;;;;;;;3.42;2.20;;;;;;;;;;7379793;19;20017;-75
2022/01/24 08:07:27;;;;;;;6.10;2.85;;;;;;;;;;7381056;19;20479;-76
2022/01/24 08:09:52;;;;;;;4.10;2.47;;;;;;;;;;7377042;19;20512;-74
2022/01/24 08:12:18;;;;;;;4.50;2.67;;;;;;;;;;7376803;19;20010;-74
2022/01/24 08:14:44;;;;;;;5.15;2.90;;;;;;;;;;7378850;19;20002;-76
2022/01/24 08:17:09;;;;;;;4.95;2.75;;;;;;;;;;7380644;19;20007;-76
2022/01/24 08:19:34;;;;;;;4.20;2.42;;;;;;;;;;7375578;19;20114;-76
2022/01/24 08:21:59;;;;;;;4.10;2.13;;;;;;;;;;7380432;19;20103;-75
2022/01/24 08:24:25;;;;;;;4.72;2.40;;;;;;;;;;7378840;19;20002;-77
2022/01/24 08:26:50;;;;;;;3.75;2.40;;;;;;;;;;7381623;19;20435;-78
2022/01/24 08:29:16;;;;;;;5.88;2.28;;;;;;;;;;7379070;19;20017;-77
2022/01/24 08:31:41;;;;;;;4.22;2.42;;;;;;;;;;7376154;19;20015;-77
2022/01/24 08:34:07;;;;;;;5.35;2.60;;;;;;;;;;7380653;19;20114;-75
2022/01/24 08:36:33;;;;;;;2.80;2.22;;;;;;;;;;7374320;19;20473;-78
2022/01/24 08:39:06;;;;;;;4.15;2.63;;;;;;;;;;7373493;19;20006;-77
2022/01/24 08:41:41;;;;;;;3.47;2.15;;;;;;;;;;7379331;19;20019;-75
2022/01/24 08:46:53;;;;;;;4.43;2.88;;;;;;;;;;7388649;19;20013;-74
2022/01/24 08:49:19;;;;;;;6.15;3.22;;;;;;;;;;7383508;19;20066;-77
2022/01/24 08:51:45;;;;;;;7.45;3.60;;;;;;;;;;7388642;19;20142;-76
2022/01/24 08:54:10;;;;;;;7.03;4.20;;;;;;;;;;7382672;19;20100;-76
2022/01/24 08:56:36;;;;;;;9.57;5.25;;;;;;;;;;7380976;19;20465;-75
2022/01/24 08:59:03;;;;;;;7.85;4.63;;;;;;;;;;7376927;19;20119;-75
2022/01/24 09:01:29;;;;;;;8.40;4.45;;;;;;;;;;7380050;19;21075;-76
2022/01/24 09:03:54;;;;;;;11.57;6.07;;;;;;;;;;7377944;19;20003;-74
2022/01/24 09:06:21;;;;;;;11.52;5.60;;;;;;;;;;7376981;19;20046;-77
2022/01/24 09:08:55;;;;;;;12.75;5.68;;;;;;;;;;7378014;19;19998;-78
2022/01/24 09:11:21;;;;;;;14.32;5.82;;;;;;;;;;7376935;19;20021;-74
2022/01/24 09:13:46;;;;;;;10.23;4.80;;;;;;;;;;7386896;19;20006;-73
2022/01/24 09:16:11;;;;;;;12.20;5.85;;;;;;;;;;7383383;19;20010;-74
2022/01/24 09:18:36;;;;;;;10.00;5.07;;;;;;;;;;7379498;19;20460;-76
2022/01/24 09:21:02;;;;;;;11.43;5.55;;;;;;;;;;7379963;19;19998;-76
2022/01/24 09:23:27;;;;;;;13.63;6.97;;;;;;;;;;7377596;19;20018;-75
2022/01/24 09:25:53;;;;;;;12.25;6.47;;;;;;;;;;7378448;19;20031;-74
2022/01/24 09:28:18;;;;;;;12.88;6.38;;;;;;;;;;7377672;19;20354;-75
2022/01/24 09:30:44;;;;;;;13.27;7.05;;;;;;;;;;7391381;19;20006;-75
2022/01/24 09:33:13;;;;;;;9.50;5.60;;;;;;;;;;7388807;19;19987;-76
2022/01/24 09:35:39;;;;;;;14.38;7.60;;;;;;;;;;7381366;19;20074;-76
2022/01/24 09:38:05;;;;;;;14.95;7.50;;;;;;;;;;7382500;19;20472;-76
2022/01/24 09:40:31;;;;;;;14.55;7.80;;;;;;;;;;7379026;19;20002;-76
2022/01/24 09:42:58;;;;;;;14.15;8.00;;;;;;;;;;7381931;19;20014;-76
2022/01/24 09:45:24;;;;;;;16.00;8.55;;;;;;;;;;7377109;19;20035;-76
2022/01/24 09:47:50;;;;;;;16.73;8.88;;;;;;;;;;7379212;19;19999;-75
2022/01/24 09:50:18;;;;;;;14.52;8.00;;;;;;;;;;7377210;19;20030;-76
2022/01/24 09:52:44;;;;;;;15.52;8.48;;;;;;;;;;7378666;19;20366;-76
2022/01/24 09:55:10;;;;;;;19.85;8.13;;;;;;;;;;7378138;19;20030;-76
2022/01/24 09:57:36;;;;;;;16.23;8.20;;;;;;;;;;7380739;19;20042;-76
2022/01/24 10:00:04;;;;;;;15.95;8.68;;;;;;;;;;7375476;19;20002;-76
2022/01/24 10:02:29;;;;;;;14.65;7.93;;;;;;;;;;7376233;19;20010;-76
2022/01/24 10:05:34;;;;;;;15.20;7.88;;;;;;;;;;7379601;19;20013;-75
2022/01/24 10:08:07;;;;;;;15.80;8.57;;;;;;;;;;7373324;19;20007;-74
2022/01/24 10:10:47;;;;;;;13.77;7.13;;;;;;;;;;7379775;19;20006;-74
2022/01/24 10:19:08;;;;;;;18.10;8.45;;;;;;;;;;7379560;19;20566;-77
2022/01/24 10:21:42;;;;;;;17.85;8.93;;;;;;;;;;7387730;19;20003;-77
2022/01/24 10:24:10;;;;;;;16.67;9.35;;;;;;;;;;7384175;19;20006;-77
2022/01/24 10:26:36;;;;;;;18.70;8.85;;;;;;;;;;7352660;19;20461;-74
2022/01/24 10:29:09;;;;;;;16.92;8.25;;;;;;;;;;7376860;19;20117;-76
2022/01/24 10:31:34;;;;;;;18.58;7.75;;;;;;;;;;7372596;19;20014;-75
2022/01/24 10:34:22;;;;;;;19.38;9.00;;;;;;;;;;7379706;19;20014;-74
2022/01/24 10:36:53;;;;;;;16.80;7.90;;;;;;;;;;7378626;19;20098;-75
2022/01/24 10:39:31;;;;;;;15.27;8.10;;;;;;;;;;7376226;19;20014;-74
2022/01/24 10:44:59;;;;;;;15.75;8.32;;;;;;;;;;7382248;19;20019;-77
2022/01/24 10:47:31;;;;;;;15.05;8.23;;;;;;;;;;7380822;19;20679;-73
2022/01/24 10:49:58;;;;;;;17.85;9.25;;;;;;;;;;7380492;19;20003;-75
2022/01/24 10:52:29;;;;;;;16.25;8.50;;;;;;;;;;7378244;19;20025;-76
2022/01/24 10:55:21;;;;;;;15.13;8.07;;;;;;;;;;7379314;19;20021;-75
2022/01/24 10:57:51;;;;;;;16.42;8.88;;;;;;;;;;7382731;19;20031;-82
2022/01/24 11:00:22;;;;;;;16.98;8.38;;;;;;;;;;7381027;19;20003;-78
2022/01/24 11:02:50;;;;;;;16.02;8.38;;;;;;;;;;7381935;19;20038;-74
2022/01/24 11:05:19;;;;;;;16.15;8.02;;;;;;;;;;7381254;19;20017;-73
2022/01/24 11:08:02;;;;;;;16.88;7.97;;;;;;;;;;7381791;19;20006;-72
2022/01/24 11:10:30;;;;;;;12.70;7.70;;;;;;;;;;7379519;19;20030;-76
2022/01/24 11:12:57;;;;;;;18.52;8.75;;;;;;;;;;7381673;19;20027;-75
2022/01/24 11:15:24;;;;;;;18.30;8.57;;;;;;;;;;7381473;19;20006;-74
2022/01/24 11:17:49;;;;;;;15.57;8.85;;;;;;;;;;7380310;19;20018;-75
2022/01/24 11:20:18;;;;;;;18.30;9.20;;;;;;;;;;7376636;19;20098;-77
2022/01/24 11:22:52;;;;;;;19.13;9.75;;;;;;;;;;7383471;19;20118;-77
2022/01/24 11:25:18;;;;;;;14.93;8.05;;;;;;;;;;7380822;19;20048;-77
2022/01/24 11:27:47;;;;;;;16.30;8.38;;;;;;;;;;7376221;19;20026;-76
2022/01/24 11:30:22;;;;;;;16.27;8.60;;;;;;;;;;7379891;19;20128;-71
2022/01/24 11:32:55;;;;;;;14.02;7.50;;;;;;;;;;7379518;19;20011;-77
2022/01/24 11:35:30;;;;;;;15.20;7.32;;;;;;;;;;7385700;19;20019;-75
2022/01/24 11:37:56;;;;;;;14.23;7.68;;;;;;;;;;7380965;19;20007;-74
2022/01/24 11:43:47;;;;;;;12.32;7.03;;;;;;;;;;7373098;19;20011;-74
2022/01/24 11:46:31;;;;;;;11.93;7.00;;;;;;;;;;7378937;19;20306;-76
2022/01/24 11:49:08;;;;;;;11.88;6.68;;;;;;;;;;7380239;19;20002;-75
2022/01/24 11:51:37;;;;;;;14.57;6.90;;;;;;;;;;7383801;19;20002;-77
2022/01/24 11:54:03;;;;;;;11.32;6.95;;;;;;;;;;7384719;19;20014;-75
2022/01/24 11:56:31;;;;;;;11.35;6.85;;;;;;;;;;7385401;19;20044;-76
2022/01/24 11:59:19;;;;;;;13.15;7.47;;;;;;;;;;7380940;19;20015;-78
2022/01/24 12:01:46;;;;;;;14.27;7.70;;;;;;;;;;7381981;19;20014;-77
2022/01/24 12:04:11;;;;;;;15.07;7.95;;;;;;;;;;7383768;19;20014;-76
2022/01/24 12:07:14;;;;;;;12.15;7.18;;;;;;;;;;7383062;19;20013;-77
2022/01/24 12:09:39;;;;;;;13.43;7.50;;;;;;;;;;7384765;19;20002;-78
2022/01/24 12:12:36;;;;;;;11.85;7.13;;;;;;;;;;7387322;19;20506;-78
2022/01/24 12:15:03;;;;;;;11.00;6.57;;;;;;;;;;7389042;19;20006;-76
2022/01/24 12:17:45;;;;;;;14.98;8.27;;;;;;;;;;7388520;19;20331;-77
2022/01/24 12:20:43;;;;;;;12.60;6.72;;;;;;;;;;7384976;19;20033;-77
2022/01/24 12:23:19;;;;;;;13.20;7.95;;;;;;;;;;7386304;19;20066;-77
2022/01/24 12:26:13;;;;;;;12.98;6.70;;;;;;;;;;7386581;19;20014;-77
2022/01/24 12:28:41;;;;;;;10.93;6.88;;;;;;;;;;7386324;19;20073;-76
2022/01/24 12:31:20;;;;;;;12.68;7.47;;;;;;;;;;7387117;19;20033;-75
2022/01/24 12:33:54;;;;;;;14.10;7.63;;;;;;;;;;7386896;19;20596;-77
2022/01/24 12:36:38;;;;;;;13.48;7.43;;;;;;;;;;7385629;19;20008;-77
2022/01/24 12:39:13;;;;;;;11.65;7.20;;;;;;;;;;7383681;19;20070;-77
2022/01/24 12:41:46;;;;;;;12.82;7.32;;;;;;;;;;7383192;19;20133;-77
2022/01/24 12:46:17;;;;;;;14.00;7.60;;;;;;;;;;7384713;19;20013;-76
2022/01/24 12:46:57;;;;;;;;;;;;;;;;;;7385912;19;20071;-75
2022/01/24 12:49:23;;;;;;;12.63;7.30;;;;;;;;;;7386015;19;20230;-76
2022/01/24 12:51:49;;;;;;;13.90;8.05;;;;;;;;;;7384835;19;20326;-75
2022/01/24 12:54:16;;;;;;;13.70;7.97;;;;;;;;;;7386419;19;20027;-76
2022/01/24 12:56:42;;;;;;;12.82;7.05;;;;;;;;;;7387274;19;20010;-76
2022/01/24 12:59:07;;;;;;;15.32;8.40;;;;;;;;;;7382036;19;20956;-75
2022/01/24 13:01:35;;;;;;;12.55;7.63;;;;;;;;;;7382357;19;20011;-75
2022/01/24 13:04:10;;;;;;;16.02;8.43;;;;;;;;;;7381346;19;20395;-75
2022/01/24 13:06:39;;;;;;;11.43;7.20;;;;;;;;;;7386027;19;20010;-76
2022/01/24 13:09:25;;;;;;;12.10;7.10;;;;;;;;;;7383836;19;20007;-76
2022/01/24 13:11:54;;;;;;;14.05;7.90;;;;;;;;;;7382307;19;20011;-75
2022/01/24 13:14:30;;;;;;;14.95;8.02;;;;;;;;;;7384283;19;20011;-77
2022/01/24 13:23:29;;;;;;;13.52;6.38;;;;;;;;;;7385080;19;20536;-76
2022/01/24 13:25:30;;;;;;;10.40;6.20;;;;;;;;;;7382505;19;20007;-75
2022/01/24 13:28:05;;;;;;;11.55;6.78;;;;;;;;;;7383682;19;20353;-75
2022/01/24 13:30:32;;;;;;;;;;;;;;;;;;7385200;19;20058;-77
2022/01/24 13:32:59;;;;;;;13.40;6.25;;;;;;;;;;7385818;19;19915;-76
2022/01/24 13:35:36;;;;;;;11.50;6.88;;;;;;;;;;7384279;19;20006;-75
2022/01/24 13:38:25;;;;;;;10.15;6.30;;;;;;;;;;7383243;19;20003;-75
2022/01/24 13:41:03;;;;;;;10.95;6.47;;;;;;;;;;7379716;19;20110;-76
2022/01/24 13:43:31;;;;;;;12.13;6.05;;;;;;;;;;7385058;19;20015;-77
2022/01/24 13:45:57;;;;;;;11.27;6.18;;;;;;;;;;7385641;19;20015;-76
2022/01/24 13:48:24;;;;;;;12.07;6.43;;;;;;;;;;7385310;19;20007;-76
2022/01/24 13:50:51;;;;;;;11.50;6.03;;;;;;;;;;7383762;19;20339;-76
2022/01/24 13:53:29;;;;;;;10.35;5.35;;;;;;;;;;7390856;19;20465;-79
2022/01/24 13:55:54;;;;;;;11.45;5.90;;;;;;;;;;7391051;19;20330;-79
2022/01/24 13:58:27;;;;;;;13.23;6.13;;;;;;;;;;7389686;19;20002;-78
2022/01/24 14:00:58;;;;;;;10.85;6.03;;;;;;;;;;7389787;19;20010;-78
2022/01/24 14:03:23;;;;;;;9.32;5.30;;;;;;;;;;7388703;19;20114;-75
2022/01/24 14:05:48;;;;;;;11.15;6.13;;;;;;;;;;7388573;19;20128;-78
2022/01/24 14:08:17;;;;;;;11.35;5.60;;;;;;;;;;7392596;19;20006;-78
2022/01/24 14:10:43;;;;;;;12.80;6.45;;;;;;;;;;7390360;19;20368;-77
2022/01/24 14:13:09;;;;;;;11.02;6.10;;;;;;;;;;7397439;19;20017;-79
2022/01/24 14:15:49;;;;;;;11.13;6.45;;;;;;;;;;7395636;19;20006;-80
2022/01/24 14:20:43;;;;;;;12.40;6.97;;;;;;;;;;7391730;19;20391;-78
2022/01/24 14:23:35;;;;;;;13.57;6.53;;;;;;;;;;7393154;19;20102;-79
2022/01/24 14:26:13;;;;;;;11.35;5.90;;;;;;;;;;7392720;19;20356;-78
2022/01/24 14:28:39;;;;;;;10.75;5.90;;;;;;;;;;7393801;19;20010;-78
2022/01/24 14:31:10;;;;;;;12.70;6.70;;;;;;;;;;7395151;19;20007;-80
2022/01/24 14:33:36;;;;;;;12.35;6.30;;;;;;;;;;7396914;19;20091;-77
2022/01/24 14:36:01;;;;;;;10.02;5.85;;;;;;;;;;7391610;19;20759;-77
2022/01/24 14:38:45;;;;;;;13.07;6.22;;;;;;;;;;7396265;19;19995;-79
2022/01/24 14:41:14;;;;;;;14.63;6.88;;;;;;;;;;7391599;19;20105;-77
2022/01/24 14:46:35;;;;;;;12.82;6.10;;;;;;;;;;7397606;19;20021;-77
2022/01/24 14:49:06;;;;;;;11.03;6.37;;;;;;;;;;7393803;19;20009;-77
2022/01/24 14:51:34;;;;;;;13.88;5.55;;;;;;;;;;7392249;19;20259;-78
2022/01/24 14:54:05;;;;;;;11.73;6.15;;;;;;;;;;7391302;19;20031;-78
2022/01/24 14:56:32;;;;;;;11.43;5.85;;;;;;;;;;7391934;19;20006;-78
2022/01/24 14:58:59;;;;;;;11.27;5.15;;;;;;;;;;7392882;19;20036;-78
2022/01/24 15:01:25;;;;;;;15.27;6.85;;;;;;;;;;7393545;19;20011;-79
2022/01/24 15:03:50;;;;;;;13.15;5.93;;;;;;;;;;7396715;19;20017;-79
2022/01/24 15:06:17;;;;;;;9.68;6.00;;;;;;;;;;7393486;19;20006;-78
2022/01/24 15:08:46;;;;;;;9.02;5.38;;;;;;;;;;7391318;19;20010;-78
2022/01/24 15:11:14;;;;;;;8.63;5.47;;;;;;;;;;7362140;19;20506;-76
2022/01/24 15:13:46;;;;;;;13.75;6.30;;;;;;;;;;7391872;19;20014;-78
2022/01/24 15:16:18;;;;;;;8.43;4.97;;;;;;;;;;7392724;19;20300;-77
2022/01/24 15:26:49;;;;;;;9.93;5.38;;;;;;;;;;7389999;19;20010;-76
2022/01/24 15:29:14;;;;;;;9.95;5.35;;;;;;;;;;7388142;19;20010;-77
2022/01/24 15:31:40;;;;;;;7.18;4.63;;;;;;;;;;7388657;19;19995;-78
2022/01/24 15:34:06;;;;;;;6.68;4.07;;;;;;;;;;7389407;19;20017;-78
2022/01/24 15:36:32;;;;;;;6.65;4.30;;;;;;;;;;7390300;19;20034;-77
2022/01/24 15:39:00;;;;;;;5.75;3.47;;;;;;;;;;7387339;19;20526;-77
2022/01/24 15:41:25;;;;;;;5.03;3.10;;;;;;;;;;7385042;19;20025;-77
2022/01/24 15:44:01;;;;;;;7.93;3.75;;;;;;;;;;7389376;19;20018;-77
2022/01/24 15:49:11;;;;;;;5.35;3.38;;;;;;;;;;7390369;19;20042;-76
2022/01/24 15:51:36;;;;;;;8.70;4.30;;;;;;;;;;7386864;19;20357;-78
2022/01/24 15:54:04;;;;;;;7.70;3.97;;;;;;;;;;7386985;19;20040;-77
2022/01/24 15:58:54;;;;;;;8.05;3.70;;;;;;;;;;7383689;19;20082;-78
2022/01/24 16:01:20;;;;;;;4.97;3.13;;;;;;;;;;7384724;19;20008;-78
2022/01/24 16:03:45;;;;;;;8.00;3.78;;;;;;;;;;7389416;19;20017;-78
2022/01/24 16:06:10;;;;;;;8.55;3.28;;;;;;;;;;7389835;19;20003;-79
2022/01/24 16:08:36;;;;;;;5.57;3.60;;;;;;;;;;7388359;19;20027;-78
2022/01/24 16:11:01;;;;;;;5.63;3.28;;;;;;;;;;7388753;19;20002;-76
2022/01/24 16:13:28;;;;;;;7.00;3.33;;;;;;;;;;7386372;19;20015;-78
2022/01/24 16:15:54;;;;;;;5.18;2.92;;;;;;;;;;7392078;19;20015;-78
2022/01/24 16:18:20;;;;;;;5.65;3.38;;;;;;;;;;7390252;19;20011;-78
2022/01/24 16:25:44;;;;;;;8.95;5.07;;;;;;;;;;7388377;19;20006;-78
2022/01/24 16:28:11;;;;;;;11.75;5.60;;;;;;;;;;7385013;19;20018;-77
2022/01/24 16:30:39;;;;;;;11.00;5.20;;;;;;;;;;7386642;19;20007;-78
2022/01/24 16:33:05;;;;;;;9.93;4.90;;;;;;;;;;7387106;19;20010;-78
2022/01/24 16:35:32;;;;;;;7.45;4.57;;;;;;;;;;7387810;19;20439;-79
2022/01/24 16:37:59;;;;;;;8.05;4.22;;;;;;;;;;7387022;19;20019;-78
2022/01/24 16:40:29;;;;;;;7.55;4.25;;;;;;;;;;7387434;19;20007;-79
2022/01/24 16:48:27;;;;;;;5.30;3.58;;;;;;;;;;7388040;19;20027;-78
2022/01/24 16:50:54;;;;;;;6.35;3.95;;;;;;;;;;7387196;19;20286;-77
2022/01/24 16:53:20;;;;;;;3.90;2.72;;;;;;;;;;7387162;19;20027;-78
2022/01/24 16:55:47;;;;;;;7.15;3.05;;;;;;;;;;7386723;19;20007;-79
2022/01/24 16:58:13;;;;;;;7.43;3.55;;;;;;;;;;7383696;19;20074;-78
2022/01/24 17:00:38;;;;;;;8.27;3.75;;;;;;;;;;7385377;19;20102;-78
2022/01/24 17:03:04;;;;;;;6.85;3.70;;;;;;;;;;7387579;19;20006;-78